sensor_id;sensor_type;location;lat;lon;timestamp;temperature;humidity
5711;DHT22;61291;52.524;13.422;2023-01-10T00:00:05;8.70;99.90
5711;DHT22;61291;52.524;13.422;2023-01-10T00:02:31;8.70;99.90
5711;DHT22;61291;52.524;13.422;2023-01-10T00:04:57;8.70;99.90
5711;DHT22;61291;52.524;13.422;2023-01-10T00:07:22;8.70;99.90
5711;DHT22;61291;52.524;13.422;2023-01-10T00:09:47;8.70;99.90
5711;DHT22;61291;52.524;13.422;2023-01-10T00:12:13;8.70;99.90
5711;DHT22;61291;52.524;13.422;2023-01-10T00:14:57;8.70;99.90
5711;DHT22;61291;52.524;13.422;2023-01-10T00:17:22;8.70;99.90
5711;DHT22;61291;52.524;13.422;2023-01-10T00:19:48;8.70;99.90
5711;DHT22;61291;52.524;13.422;2023-01-10T00:22:13;8.70;99.90
5711;DHT22;61291;52.524;13.422;2023-01-10T00:24:42;8.70;99.90
5711;DHT22;61291;52.524;13.422;2023-01-10T00:27:08;8.70;99.90
5711;DHT22;61291;52.524;13.422;2023-01-10T00:29:35;8.70;99.90
5711;DHT22;61291;52.524;13.422;2023-01-10T00:32:01;8.70;99.90
5711;DHT22;61291;52.524;13.422;2023-01-10T00:34:27;8.70;99.90
5711;DHT22;61291;52.524;13.422;2023-01-10T00:36:52;8.70;99.90
5711;DHT22;61291;52.524;13.422;2023-01-10T00:39:17;8.70;99.90
5711;DHT22;61291;52.524;13.422;2023-01-10T00:41:45;8.70;99.90
5711;DHT22;61291;52.524;13.422;2023-01-10T00:44:29;8.60;99.90
5711;DHT22;61291;52.524;13.422;2023-01-10T00:46:55;8.60;99.90
5711;DHT22;61291;52.524;13.422;2023-01-10T00:49:20;8.50;99.90
5711;DHT22;61291;52.524;13.422;2023-01-10T00:51:46;8.50;99.90
5711;DHT22;61291;52.524;13.422;2023-01-10T00:54:12;8.50;99.90
5711;DHT22;61291;52.524;13.422;2023-01-10T00:56:38;8.50;99.90
5711;DHT22;61291;52.524;13.422;2023-01-10T00:59:04;8.50;99.90
5711;DHT22;61291;52.524;13.422;2023-01-10T01:01:31;8.50;99.90
5711;DHT22;61291;52.524;13.422;2023-01-10T01:03:56;8.50;99.90
5711;DHT22;61291;52.524;13.422;2023-01-10T01:06:24;8.50;99.90
5711;DHT22;61291;52.524;13.422;2023-01-10T01:08:49;8.50;99.90
5711;DHT22;61291;52.524;13.422;2023-01-10T01:11:15;8.50;99.90
5711;DHT22;61291;52.524;13.422;2023-01-10T01:13:40;8.50;99.90
5711;DHT22;61291;52.524;13.422;2023-01-10T01:16:06;8.50;99.90
5711;DHT22;61291;52.524;13.422;2023-01-10T01:18:31;8.50;99.90
5711;DHT22;61291;52.524;13.422;2023-01-10T01:20:58;8.50;99.90
5711;DHT22;61291;52.524;13.422;2023-01-10T01:23:28;8.40;99.90
5711;DHT22;61291;52.524;13.422;2023-01-10T01:25:54;8.40;99.90
5711;DHT22;61291;52.524;13.422;2023-01-10T01:28:21;8.30;99.90
5711;DHT22;61291;52.524;13.422;2023-01-10T01:30:46;8.00;99.90
5711;DHT22;61291;52.524;13.422;2023-01-10T01:33:12;7.90;99.90
5711;DHT22;61291;52.524;13.422;2023-01-10T01:35:41;7.80;99.90
5711;DHT22;61291;52.524;13.422;2023-01-10T01:38:07;7.80;99.90
5711;DHT22;61291;52.524;13.422;2023-01-10T01:40:32;7.70;99.90
5711;DHT22;61291;52.524;13.422;2023-01-10T01:42:58;7.60;99.90
5711;DHT22;61291;52.524;13.422;2023-01-10T01:45:30;7.50;99.90
5711;DHT22;61291;52.524;13.422;2023-01-10T01:48:05;7.50;99.90
5711;DHT22;61291;52.524;13.422;2023-01-10T01:50:53;7.50;99.90
5711;DHT22;61291;52.524;13.422;2023-01-10T01:53:26;7.50;99.90
5711;DHT22;61291;52.524;13.422;2023-01-10T01:55:56;7.60;99.90
5711;DHT22;61291;52.524;13.422;2023-01-10T01:59:08;7.60;99.90
5711;DHT22;61291;52.524;13.422;2023-01-10T02:01:14;7.60;99.90
5711;DHT22;61291;52.524;13.422;2023-01-10T02:03:42;7.50;99.90
5711;DHT22;61291;52.524;13.422;2023-01-10T02:06:09;7.50;99.90
5711;DHT22;61291;52.524;13.422;2023-01-10T02:08:35;7.50;99.90
5711;DHT22;61291;52.524;13.422;2023-01-10T02:11:07;7.50;99.90
5711;DHT22;61291;52.524;13.422;2023-01-10T02:13:37;7.50;99.90
5711;DHT22;61291;52.524;13.422;2023-01-10T02:16:04;7.50;99.90
5711;DHT22;61291;52.524;13.422;2023-01-10T02:18:30;7.50;99.90
5711;DHT22;61291;52.524;13.422;2023-01-10T02:21:11;7.40;99.90
5711;DHT22;61291;52.524;13.422;2023-01-10T02:24:13;7.40;99.90
5711;DHT22;61291;52.524;13.422;2023-01-10T02:26:46;7.40;99.90
5711;DHT22;61291;52.524;13.422;2023-01-10T02:41:00;6.70;99.90
5711;DHT22;61291;52.524;13.422;2023-01-10T02:43:45;6.70;99.90
5711;DHT22;61291;52.524;13.422;2023-01-10T02:46:17;6.80;99.90
5711;DHT22;61291;52.524;13.422;2023-01-10T02:48:50;6.80;99.90
5711;DHT22;61291;52.524;13.422;2023-01-10T02:51:27;6.80;99.90
5711;DHT22;61291;52.524;13.422;2023-01-10T02:54:08;6.60;99.90
5711;DHT22;61291;52.524;13.422;2023-01-10T02:56:46;6.50;99.90
5711;DHT22;61291;52.524;13.422;2023-01-10T02:59:35;6.50;99.90
5711;DHT22;61291;52.524;13.422;2023-01-10T03:02:17;6.50;99.90
5711;DHT22;61291;52.524;13.422;2023-01-10T03:07:47;6.90;99.90
5711;DHT22;61291;52.524;13.422;2023-01-10T03:10:21;7.00;99.90
5711;DHT22;61291;52.524;13.422;2023-01-10T03:15:18;7.10;99.90
5711;DHT22;61291;52.524;13.422;2023-01-10T03:17:50;7.10;99.90
5711;DHT22;61291;52.524;13.422;2023-01-10T03:20:18;7.00;99.90
5711;DHT22;61291;52.524;13.422;2023-01-10T03:22:46;7.00;99.90
5711;DHT22;61291;52.524;13.422;2023-01-10T03:25:14;7.00;99.90
5711;DHT22;61291;52.524;13.422;2023-01-10T03:27:59;7.10;99.90
5711;DHT22;61291;52.524;13.422;2023-01-10T03:30:39;7.20;99.90
5711;DHT22;61291;52.524;13.422;2023-01-10T03:33:07;7.30;99.90
5711;DHT22;61291;52.524;13.422;2023-01-10T03:38:36;7.40;99.90
5711;DHT22;61291;52.524;13.422;2023-01-10T03:41:11;7.50;99.90
5711;DHT22;61291;52.524;13.422;2023-01-10T03:43:44;7.50;99.90
5711;DHT22;61291;52.524;13.422;2023-01-10T03:47:10;7.60;99.90
5711;DHT22;61291;52.524;13.422;2023-01-10T03:49:39;7.70;99.90
5711;DHT22;61291;52.524;13.422;2023-01-10T03:52:09;7.70;99.90
5711;DHT22;61291;52.524;13.422;2023-01-10T03:54:42;7.80;99.90
5711;DHT22;61291;52.524;13.422;2023-01-10T03:57:15;7.80;99.90
5711;DHT22;61291;52.524;13.422;2023-01-10T03:59:40;7.90;99.90
5711;DHT22;61291;52.524;13.422;2023-01-10T04:02:06;8.00;99.90
5711;DHT22;61291;52.524;13.422;2023-01-10T04:04:31;8.00;99.90
5711;DHT22;61291;52.524;13.422;2023-01-10T04:06:57;8.00;99.90
5711;DHT22;61291;52.524;13.422;2023-01-10T04:09:22;8.00;99.90
5711;DHT22;61291;52.524;13.422;2023-01-10T04:11:48;8.00;99.90
5711;DHT22;61291;52.524;13.422;2023-01-10T04:14:13;8.00;99.90
5711;DHT22;61291;52.524;13.422;2023-01-10T04:16:39;8.00;99.90
5711;DHT22;61291;52.524;13.422;2023-01-10T04:19:04;8.00;99.90
5711;DHT22;61291;52.524;13.422;2023-01-10T04:21:30;8.00;99.90
5711;DHT22;61291;52.524;13.422;2023-01-10T04:23:55;8.00;99.90
5711;DHT22;61291;52.524;13.422;2023-01-10T04:26:21;7.90;99.90
5711;DHT22;61291;52.524;13.422;2023-01-10T04:28:46;8.00;99.90
5711;DHT22;61291;52.524;13.422;2023-01-10T04:31:12;8.00;99.90
5711;DHT22;61291;52.524;13.422;2023-01-10T04:33:37;8.00;99.90
5711;DHT22;61291;52.524;13.422;2023-01-10T04:36:05;8.00;99.90
5711;DHT22;61291;52.524;13.422;2023-01-10T04:38:31;8.00;99.90
5711;DHT22;61291;52.524;13.422;2023-01-10T04:40:56;7.90;99.90
5711;DHT22;61291;52.524;13.422;2023-01-10T04:43:23;7.90;99.90
5711;DHT22;61291;52.524;13.422;2023-01-10T04:45:49;7.80;99.90
5711;DHT22;61291;52.524;13.422;2023-01-10T04:48:15;7.80;99.90
5711;DHT22;61291;52.524;13.422;2023-01-10T04:50:41;7.70;99.90
5711;DHT22;61291;52.524;13.422;2023-01-10T04:53:06;7.60;99.90
5711;DHT22;61291;52.524;13.422;2023-01-10T04:55:33;7.50;99.90
5711;DHT22;61291;52.524;13.422;2023-01-10T04:57:58;7.50;99.90
5711;DHT22;61291;52.524;13.422;2023-01-10T05:00:24;7.50;99.90
5711;DHT22;61291;52.524;13.422;2023-01-10T05:02:55;7.60;99.90
5711;DHT22;61291;52.524;13.422;2023-01-10T05:05:20;7.60;99.90
5711;DHT22;61291;52.524;13.422;2023-01-10T05:07:46;7.70;99.90
5711;DHT22;61291;52.524;13.422;2023-01-10T05:10:12;7.80;99.90
5711;DHT22;61291;52.524;13.422;2023-01-10T05:12:37;7.80;99.90
5711;DHT22;61291;52.524;13.422;2023-01-10T05:15:04;7.90;99.90
5711;DHT22;61291;52.524;13.422;2023-01-10T05:17:29;8.00;99.90
5711;DHT22;61291;52.524;13.422;2023-01-10T05:19:55;8.00;99.90
5711;DHT22;61291;52.524;13.422;2023-01-10T05:22:20;8.00;99.90
5711;DHT22;61291;52.524;13.422;2023-01-10T05:24:45;8.10;99.90
5711;DHT22;61291;52.524;13.422;2023-01-10T05:27:11;8.10;99.90
5711;DHT22;61291;52.524;13.422;2023-01-10T05:29:36;8.10;99.90
5711;DHT22;61291;52.524;13.422;2023-01-10T05:32:02;8.10;99.90
5711;DHT22;61291;52.524;13.422;2023-01-10T05:34:27;8.10;99.90
5711;DHT22;61291;52.524;13.422;2023-01-10T05:36:53;8.10;99.90
5711;DHT22;61291;52.524;13.422;2023-01-10T05:39:18;8.00;99.90
5711;DHT22;61291;52.524;13.422;2023-01-10T05:41:45;8.10;99.90
5711;DHT22;61291;52.524;13.422;2023-01-10T05:44:11;8.10;99.90
5711;DHT22;61291;52.524;13.422;2023-01-10T05:46:36;8.10;99.90
5711;DHT22;61291;52.524;13.422;2023-01-10T05:49:02;8.20;99.90
5711;DHT22;61291;52.524;13.422;2023-01-10T05:51:27;8.20;99.90
5711;DHT22;61291;52.524;13.422;2023-01-10T05:53:53;8.30;99.90
5711;DHT22;61291;52.524;13.422;2023-01-10T05:56:18;8.30;99.90
5711;DHT22;61291;52.524;13.422;2023-01-10T05:58:44;8.30;99.90
5711;DHT22;61291;52.524;13.422;2023-01-10T06:01:09;8.30;99.90
5711;DHT22;61291;52.524;13.422;2023-01-10T06:03:35;8.30;99.90
5711;DHT22;61291;52.524;13.422;2023-01-10T06:06:01;8.30;99.90
5711;DHT22;61291;52.524;13.422;2023-01-10T06:08:29;8.40;99.90
5711;DHT22;61291;52.524;13.422;2023-01-10T06:10:55;8.30;99.90
5711;DHT22;61291;52.524;13.422;2023-01-10T06:13:21;8.40;99.90
5711;DHT22;61291;52.524;13.422;2023-01-10T06:15:47;8.30;99.90
5711;DHT22;61291;52.524;13.422;2023-01-10T06:18:13;8.30;99.90
5711;DHT22;61291;52.524;13.422;2023-01-10T06:20:42;8.30;99.90
5711;DHT22;61291;52.524;13.422;2023-01-10T06:23:08;8.40;99.90
5711;DHT22;61291;52.524;13.422;2023-01-10T06:25:35;8.40;99.90
5711;DHT22;61291;52.524;13.422;2023-01-10T06:28:05;8.40;99.90
5711;DHT22;61291;52.524;13.422;2023-01-10T06:30:30;8.40;99.90
5711;DHT22;61291;52.524;13.422;2023-01-10T06:33:00;8.20;99.90
5711;DHT22;61291;52.524;13.422;2023-01-10T06:35:26;8.10;99.90
5711;DHT22;61291;52.524;13.422;2023-01-10T06:37:52;8.00;99.90
5711;DHT22;61291;52.524;13.422;2023-01-10T06:40:18;7.90;99.90
5711;DHT22;61291;52.524;13.422;2023-01-10T06:42:43;7.80;99.90
5711;DHT22;61291;52.524;13.422;2023-01-10T06:45:09;7.80;99.90
5711;DHT22;61291;52.524;13.422;2023-01-10T06:47:35;7.80;99.90
5711;DHT22;61291;52.524;13.422;2023-01-10T06:50:00;7.90;99.90
5711;DHT22;61291;52.524;13.422;2023-01-10T06:52:26;8.00;99.90
5711;DHT22;61291;52.524;13.422;2023-01-10T06:54:51;8.00;99.90
5711;DHT22;61291;52.524;13.422;2023-01-10T06:57:17;8.10;99.90
5711;DHT22;61291;52.524;13.422;2023-01-10T06:59:43;8.10;99.90
5711;DHT22;61291;52.524;13.422;2023-01-10T07:02:10;8.10;99.90
5711;DHT22;61291;52.524;13.422;2023-01-10T07:04:35;8.20;99.90
5711;DHT22;61291;52.524;13.422;2023-01-10T07:07:01;8.30;99.90
5711;DHT22;61291;52.524;13.422;2023-01-10T07:09:27;8.30;99.90
5711;DHT22;61291;52.524;13.422;2023-01-10T07:11:52;8.30;99.90
5711;DHT22;61291;52.524;13.422;2023-01-10T07:14:18;8.30;99.90
5711;DHT22;61291;52.524;13.422;2023-01-10T07:16:44;8.30;99.90
5711;DHT22;61291;52.524;13.422;2023-01-10T07:19:09;8.20;99.90
5711;DHT22;61291;52.524;13.422;2023-01-10T07:21:37;8.20;99.90
5711;DHT22;61291;52.524;13.422;2023-01-10T07:24:03;8.20;99.90
5711;DHT22;61291;52.524;13.422;2023-01-10T07:26:29;8.10;99.90
5711;DHT22;61291;52.524;13.422;2023-01-10T07:28:54;8.10;99.90
5711;DHT22;61291;52.524;13.422;2023-01-10T07:31:20;8.00;99.90
5711;DHT22;61291;52.524;13.422;2023-01-10T07:33:48;8.00;99.90
5711;DHT22;61291;52.524;13.422;2023-01-10T07:36:14;8.00;99.90
5711;DHT22;61291;52.524;13.422;2023-01-10T07:38:40;7.90;99.90
5711;DHT22;61291;52.524;13.422;2023-01-10T07:41:05;7.90;99.90
5711;DHT22;61291;52.524;13.422;2023-01-10T07:43:31;8.00;99.90
5711;DHT22;61291;52.524;13.422;2023-01-10T07:46:01;7.90;99.90
5711;DHT22;61291;52.524;13.422;2023-01-10T07:48:28;7.90;99.90
5711;DHT22;61291;52.524;13.422;2023-01-10T07:50:58;7.90;99.90
5711;DHT22;61291;52.524;13.422;2023-01-10T07:53:25;8.00;99.90
5711;DHT22;61291;52.524;13.422;2023-01-10T07:55:51;8.00;99.90
5711;DHT22;61291;52.524;13.422;2023-01-10T07:58:16;8.10;99.90
5711;DHT22;61291;52.524;13.422;2023-01-10T08:00:42;8.20;99.90
5711;DHT22;61291;52.524;13.422;2023-01-10T08:03:09;8.20;99.90
5711;DHT22;61291;52.524;13.422;2023-01-10T08:05:35;8.30;99.90
5711;DHT22;61291;52.524;13.422;2023-01-10T08:08:08;8.40;99.90
5711;DHT22;61291;52.524;13.422;2023-01-10T08:10:35;8.50;99.90
5711;DHT22;61291;52.524;13.422;2023-01-10T08:13:00;8.50;99.90
5711;DHT22;61291;52.524;13.422;2023-01-10T08:15:26;8.70;99.90
5711;DHT22;61291;52.524;13.422;2023-01-10T08:17:51;8.80;99.90
5711;DHT22;61291;52.524;13.422;2023-01-10T08:20:17;8.90;99.90
5711;DHT22;61291;52.524;13.422;2023-01-10T08:22:43;9.00;99.90
5711;DHT22;61291;52.524;13.422;2023-01-10T08:25:08;9.00;99.90
5711;DHT22;61291;52.524;13.422;2023-01-10T08:27:36;9.10;99.90
5711;DHT22;61291;52.524;13.422;2023-01-10T08:30:03;9.10;99.90
5711;DHT22;61291;52.524;13.422;2023-01-10T08:32:29;9.20;99.90
5711;DHT22;61291;52.524;13.422;2023-01-10T08:34:54;9.20;99.90
5711;DHT22;61291;52.524;13.422;2023-01-10T08:37:20;9.30;99.90
5711;DHT22;61291;52.524;13.422;2023-01-10T08:39:45;9.30;99.90
5711;DHT22;61291;52.524;13.422;2023-01-10T08:42:11;9.30;99.90
5711;DHT22;61291;52.524;13.422;2023-01-10T08:44:36;9.20;99.90
5711;DHT22;61291;52.524;13.422;2023-01-10T08:47:02;9.20;99.90
5711;DHT22;61291;52.524;13.422;2023-01-10T08:49:28;9.20;99.90
5711;DHT22;61291;52.524;13.422;2023-01-10T08:51:53;9.20;99.90
5711;DHT22;61291;52.524;13.422;2023-01-10T08:54:19;9.20;99.90
5711;DHT22;61291;52.524;13.422;2023-01-10T08:56:44;9.40;99.90
5711;DHT22;61291;52.524;13.422;2023-01-10T08:59:09;9.80;99.90
5711;DHT22;61291;52.524;13.422;2023-01-10T09:01:35;9.90;99.90
5711;DHT22;61291;52.524;13.422;2023-01-10T09:04:00;10.10;99.90
5711;DHT22;61291;52.524;13.422;2023-01-10T09:06:26;10.40;99.90
5711;DHT22;61291;52.524;13.422;2023-01-10T09:08:52;10.60;99.90
5711;DHT22;61291;52.524;13.422;2023-01-10T09:11:17;10.60;99.90
5711;DHT22;61291;52.524;13.422;2023-01-10T09:13:43;10.70;99.90
5711;DHT22;61291;52.524;13.422;2023-01-10T09:16:09;10.70;99.90
5711;DHT22;61291;52.524;13.422;2023-01-10T09:18:35;10.60;99.90
5711;DHT22;61291;52.524;13.422;2023-01-10T09:21:00;10.50;99.90
5711;DHT22;61291;52.524;13.422;2023-01-10T09:23:27;10.60;99.90
5711;DHT22;61291;52.524;13.422;2023-01-10T09:25:54;10.60;99.90
5711;DHT22;61291;52.524;13.422;2023-01-10T09:28:22;10.70;99.90
5711;DHT22;61291;52.524;13.422;2023-01-10T09:30:48;10.70;99.90
5711;DHT22;61291;52.524;13.422;2023-01-10T09:33:15;10.70;99.90
5711;DHT22;61291;52.524;13.422;2023-01-10T09:35:41;10.60;99.90
5711;DHT22;61291;52.524;13.422;2023-01-10T09:38:10;10.70;99.90
5711;DHT22;61291;52.524;13.422;2023-01-10T09:40:58;10.60;99.90
5711;DHT22;61291;52.524;13.422;2023-01-10T09:46:41;10.80;99.90
5711;DHT22;61291;52.524;13.422;2023-01-10T09:49:45;10.50;99.90
5711;DHT22;61291;52.524;13.422;2023-01-10T09:52:20;10.40;99.90
5711;DHT22;61291;52.524;13.422;2023-01-10T09:54:47;10.20;99.90
5711;DHT22;61291;52.524;13.422;2023-01-10T09:57:19;10.10;99.90
5711;DHT22;61291;52.524;13.422;2023-01-10T09:59:46;10.10;99.90
5711;DHT22;61291;52.524;13.422;2023-01-10T10:02:40;10.30;99.90
5711;DHT22;61291;52.524;13.422;2023-01-10T10:05:18;10.40;99.90
5711;DHT22;61291;52.524;13.422;2023-01-10T10:07:45;10.70;99.90
5711;DHT22;61291;52.524;13.422;2023-01-10T10:10:24;11.20;99.90
5711;DHT22;61291;52.524;13.422;2023-01-10T10:13:03;11.60;99.90
5711;DHT22;61291;52.524;13.422;2023-01-10T10:15:40;11.70;99.90
5711;DHT22;61291;52.524;13.422;2023-01-10T10:18:22;11.60;99.90
5711;DHT22;61291;52.524;13.422;2023-01-10T10:21:05;11.60;99.90
5711;DHT22;61291;52.524;13.422;2023-01-10T10:23:47;11.60;99.90
5711;DHT22;61291;52.524;13.422;2023-01-10T10:26:34;11.70;99.90
5711;DHT22;61291;52.524;13.422;2023-01-10T10:34:39;11.50;99.90
5711;DHT22;61291;52.524;13.422;2023-01-10T10:37:19;11.30;99.90
5711;DHT22;61291;52.524;13.422;2023-01-10T10:39:55;11.10;99.90
5711;DHT22;61291;52.524;13.422;2023-01-10T10:42:22;11.00;99.90
5711;DHT22;61291;52.524;13.422;2023-01-10T10:44:56;11.00;99.90
5711;DHT22;61291;52.524;13.422;2023-01-10T10:47:28;11.20;99.90
5711;DHT22;61291;52.524;13.422;2023-01-10T10:50:00;11.20;99.90
5711;DHT22;61291;52.524;13.422;2023-01-10T10:52:32;11.10;99.90
5711;DHT22;61291;52.524;13.422;2023-01-10T10:54:59;11.10;99.90
5711;DHT22;61291;52.524;13.422;2023-01-10T10:57:27;11.10;99.90
5711;DHT22;61291;52.524;13.422;2023-01-10T10:59:53;11.20;99.90
5711;DHT22;61291;52.524;13.422;2023-01-10T11:02:25;11.00;99.90
5711;DHT22;61291;52.524;13.422;2023-01-10T11:04:54;10.70;99.90
5711;DHT22;61291;52.524;13.422;2023-01-10T11:07:21;10.60;99.90
5711;DHT22;61291;52.524;13.422;2023-01-10T11:09:46;10.70;99.90
5711;DHT22;61291;52.524;13.422;2023-01-10T11:12:32;10.80;99.90
5711;DHT22;61291;52.524;13.422;2023-01-10T11:14:58;11.20;99.90
5711;DHT22;61291;52.524;13.422;2023-01-10T11:17:30;11.40;99.90
5711;DHT22;61291;52.524;13.422;2023-01-10T11:20:02;11.60;99.90
5711;DHT22;61291;52.524;13.422;2023-01-10T11:22:53;11.70;99.90
5711;DHT22;61291;52.524;13.422;2023-01-10T11:25:20;11.60;99.90
5711;DHT22;61291;52.524;13.422;2023-01-10T11:27:53;11.30;99.90
5711;DHT22;61291;52.524;13.422;2023-01-10T11:30:27;11.10;99.90
5711;DHT22;61291;52.524;13.422;2023-01-10T11:32:56;10.90;99.90
5711;DHT22;61291;52.524;13.422;2023-01-10T11:35:36;10.70;99.90
5711;DHT22;61291;52.524;13.422;2023-01-10T11:38:18;10.70;99.90
5711;DHT22;61291;52.524;13.422;2023-01-10T11:41:03;10.70;99.90
5711;DHT22;61291;52.524;13.422;2023-01-10T11:46:03;10.90;99.90
5711;DHT22;61291;52.524;13.422;2023-01-10T11:48:42;11.10;99.90
5711;DHT22;61291;52.524;13.422;2023-01-10T11:51:18;11.20;99.90
5711;DHT22;61291;52.524;13.422;2023-01-10T11:53:46;11.40;99.90
5711;DHT22;61291;52.524;13.422;2023-01-10T11:56:24;11.50;99.90
5711;DHT22;61291;52.524;13.422;2023-01-10T11:58:50;11.60;99.90
5711;DHT22;61291;52.524;13.422;2023-01-10T12:01:33;11.70;99.90
5711;DHT22;61291;52.524;13.422;2023-01-10T12:04:01;11.80;99.90
5711;DHT22;61291;52.524;13.422;2023-01-10T12:06:27;11.80;99.90
5711;DHT22;61291;52.524;13.422;2023-01-10T12:08:53;11.80;99.90
5711;DHT22;61291;52.524;13.422;2023-01-10T12:11:25;11.80;99.90
5711;DHT22;61291;52.524;13.422;2023-01-10T12:13:53;11.80;99.90
5711;DHT22;61291;52.524;13.422;2023-01-10T12:16:30;11.80;99.90
5711;DHT22;61291;52.524;13.422;2023-01-10T12:18:58;11.80;99.90
5711;DHT22;61291;52.524;13.422;2023-01-10T12:21:37;11.90;99.90
5711;DHT22;61291;52.524;13.422;2023-01-10T12:24:16;11.70;99.90
5711;DHT22;61291;52.524;13.422;2023-01-10T12:26:44;11.30;99.90
5711;DHT22;61291;52.524;13.422;2023-01-10T12:29:15;11.00;99.90
5711;DHT22;61291;52.524;13.422;2023-01-10T12:31:42;10.80;99.90
5711;DHT22;61291;52.524;13.422;2023-01-10T12:34:37;10.70;99.90
5711;DHT22;61291;52.524;13.422;2023-01-10T12:37:21;10.80;99.90
5711;DHT22;61291;52.524;13.422;2023-01-10T12:39:54;10.90;99.90
5711;DHT22;61291;52.524;13.422;2023-01-10T12:43:04;11.30;99.90
5711;DHT22;61291;52.524;13.422;2023-01-10T12:45:52;11.40;99.90
5711;DHT22;61291;52.524;13.422;2023-01-10T12:48:28;11.40;99.90
5711;DHT22;61291;52.524;13.422;2023-01-10T12:51:00;11.50;99.90
5711;DHT22;61291;52.524;13.422;2023-01-10T12:53:40;11.50;99.90
5711;DHT22;61291;52.524;13.422;2023-01-10T12:56:11;11.60;99.90
5711;DHT22;61291;52.524;13.422;2023-01-10T12:58:43;11.70;99.90
5711;DHT22;61291;52.524;13.422;2023-01-10T13:01:16;11.80;99.90
5711;DHT22;61291;52.524;13.422;2023-01-10T13:03:44;11.80;99.90
5711;DHT22;61291;52.524;13.422;2023-01-10T13:06:22;11.80;99.90
5711;DHT22;61291;52.524;13.422;2023-01-10T13:08:49;11.70;99.90
5711;DHT22;61291;52.524;13.422;2023-01-10T13:11:17;11.60;99.90
5711;DHT22;61291;52.524;13.422;2023-01-10T13:13:52;11.50;99.90
5711;DHT22;61291;52.524;13.422;2023-01-10T13:16:49;11.50;99.90
5711;DHT22;61291;52.524;13.422;2023-01-10T13:21:45;11.40;99.90
5711;DHT22;61291;52.524;13.422;2023-01-10T13:26:55;11.30;99.90
5711;DHT22;61291;52.524;13.422;2023-01-10T13:29:38;11.20;99.90
5711;DHT22;61291;52.524;13.422;2023-01-10T13:32:31;11.10;99.90
5711;DHT22;61291;52.524;13.422;2023-01-10T13:35:15;11.00;99.90
5711;DHT22;61291;52.524;13.422;2023-01-10T13:37:42;11.00;99.90
5711;DHT22;61291;52.524;13.422;2023-01-10T13:40:20;11.00;99.90
5711;DHT22;61291;52.524;13.422;2023-01-10T13:51:19;10.50;99.90
5711;DHT22;61291;52.524;13.422;2023-01-10T13:56:45;10.40;99.90
5711;DHT22;61291;52.524;13.422;2023-01-10T13:59:13;10.40;99.90
5711;DHT22;61291;52.524;13.422;2023-01-10T14:01:43;10.40;99.90
5711;DHT22;61291;52.524;13.422;2023-01-10T14:04:34;10.40;99.90
5711;DHT22;61291;52.524;13.422;2023-01-10T14:07:03;10.30;99.90
5711;DHT22;61291;52.524;13.422;2023-01-10T14:09:37;10.30;99.90
5711;DHT22;61291;52.524;13.422;2023-01-10T14:12:07;10.30;99.90
5711;DHT22;61291;52.524;13.422;2023-01-10T14:14:40;10.20;99.90
5711;DHT22;61291;52.524;13.422;2023-01-10T14:19:44;9.90;99.90
5711;DHT22;61291;52.524;13.422;2023-01-10T14:22:23;9.70;99.90
5711;DHT22;61291;52.524;13.422;2023-01-10T14:24:50;9.60;99.90
5711;DHT22;61291;52.524;13.422;2023-01-10T14:27:19;9.40;99.90
5711;DHT22;61291;52.524;13.422;2023-01-10T14:29:56;9.20;99.90
5711;DHT22;61291;52.524;13.422;2023-01-10T14:32:33;9.10;99.90
5711;DHT22;61291;52.524;13.422;2023-01-10T14:35:02;8.90;99.90
5711;DHT22;61291;52.524;13.422;2023-01-10T14:38:06;8.80;99.90
5711;DHT22;61291;52.524;13.422;2023-01-10T14:40:42;8.70;99.90
5711;DHT22;61291;52.524;13.422;2023-01-10T14:43:13;8.60;99.90
5711;DHT22;61291;52.524;13.422;2023-01-10T14:45:57;8.40;99.90
5711;DHT22;61291;52.524;13.422;2023-01-10T14:48:39;8.30;99.90
5711;DHT22;61291;52.524;13.422;2023-01-10T14:53:46;7.80;99.90
5711;DHT22;61291;52.524;13.422;2023-01-10T14:56:35;7.80;99.90
5711;DHT22;61291;52.524;13.422;2023-01-10T14:59:29;7.90;99.90
5711;DHT22;61291;52.524;13.422;2023-01-10T15:02:00;8.10;99.90
5711;DHT22;61291;52.524;13.422;2023-01-10T15:04:30;8.20;99.90
5711;DHT22;61291;52.524;13.422;2023-01-10T15:06:59;8.20;99.90
5711;DHT22;61291;52.524;13.422;2023-01-10T15:09:28;8.20;99.90
5711;DHT22;61291;52.524;13.422;2023-01-10T15:11:55;8.20;99.90
5711;DHT22;61291;52.524;13.422;2023-01-10T15:14:22;8.30;99.90
5711;DHT22;61291;52.524;13.422;2023-01-10T15:16:52;8.20;99.90
5711;DHT22;61291;52.524;13.422;2023-01-10T15:19:21;8.10;99.90
5711;DHT22;61291;52.524;13.422;2023-01-10T15:21:47;8.00;99.90
5711;DHT22;61291;52.524;13.422;2023-01-10T15:24:32;7.90;99.90
5711;DHT22;61291;52.524;13.422;2023-01-10T15:27:03;7.60;99.90
5711;DHT22;61291;52.524;13.422;2023-01-10T15:29:31;7.50;99.90
5711;DHT22;61291;52.524;13.422;2023-01-10T15:32:22;7.50;99.90
5711;DHT22;61291;52.524;13.422;2023-01-10T15:34:50;7.50;99.90
5711;DHT22;61291;52.524;13.422;2023-01-10T15:37:37;7.60;99.90
5711;DHT22;61291;52.524;13.422;2023-01-10T15:40:06;7.70;99.90
5711;DHT22;61291;52.524;13.422;2023-01-10T15:42:43;7.80;99.90
5711;DHT22;61291;52.524;13.422;2023-01-10T15:45:26;7.90;99.90
5711;DHT22;61291;52.524;13.422;2023-01-10T15:47:53;8.00;99.90
5711;DHT22;61291;52.524;13.422;2023-01-10T15:50:30;7.90;99.90
5711;DHT22;61291;52.524;13.422;2023-01-10T15:52:57;7.80;99.90
5711;DHT22;61291;52.524;13.422;2023-01-10T15:55:45;7.50;99.90
5711;DHT22;61291;52.524;13.422;2023-01-10T15:58:25;7.30;99.90
5711;DHT22;61291;52.524;13.422;2023-01-10T16:00:53;7.20;99.90
5711;DHT22;61291;52.524;13.422;2023-01-10T16:03:31;7.30;99.90
5711;DHT22;61291;52.524;13.422;2023-01-10T16:05:58;7.50;99.90
5711;DHT22;61291;52.524;13.422;2023-01-10T16:08:26;7.70;99.90
5711;DHT22;61291;52.524;13.422;2023-01-10T16:10:58;7.80;99.90
5711;DHT22;61291;52.524;13.422;2023-01-10T16:13:24;7.90;99.90
5711;DHT22;61291;52.524;13.422;2023-01-10T16:15:54;8.00;99.90
5711;DHT22;61291;52.524;13.422;2023-01-10T16:18:20;8.10;99.90
5711;DHT22;61291;52.524;13.422;2023-01-10T16:20:47;8.20;99.90
5711;DHT22;61291;52.524;13.422;2023-01-10T16:23:33;8.20;99.90
5711;DHT22;61291;52.524;13.422;2023-01-10T16:26:02;8.30;99.90
5711;DHT22;61291;52.524;13.422;2023-01-10T16:28:28;8.20;99.90
5711;DHT22;61291;52.524;13.422;2023-01-10T16:31:00;8.20;99.90
5711;DHT22;61291;52.524;13.422;2023-01-10T16:33:25;8.10;99.90
5711;DHT22;61291;52.524;13.422;2023-01-10T16:35:56;8.00;99.90
5711;DHT22;61291;52.524;13.422;2023-01-10T16:38:23;7.90;99.90
5711;DHT22;61291;52.524;13.422;2023-01-10T16:40:51;7.80;99.90
5711;DHT22;61291;52.524;13.422;2023-01-10T16:43:17;7.80;99.90
5711;DHT22;61291;52.524;13.422;2023-01-10T16:48:16;7.90;99.90
5711;DHT22;61291;52.524;13.422;2023-01-10T16:50:42;7.90;99.90
5711;DHT22;61291;52.524;13.422;2023-01-10T16:53:12;8.00;99.90
5711;DHT22;61291;52.524;13.422;2023-01-10T16:55:50;8.00;99.90
5711;DHT22;61291;52.524;13.422;2023-01-10T16:58:16;8.10;99.90